sensor_id;sensor_type;location;lat;lon;timestamp;pressure;altitude;pressure_sealevel;temperature;humidity
17505;BME280;8870;50.950;11.762;2023-03-23T00:04:20;97472.88;;;11.96;100.00
17505;BME280;8870;50.950;11.762;2023-03-23T00:09:54;97473.34;;;12.00;100.00
17505;BME280;8870;50.950;11.762;2023-03-23T00:15:16;97465.25;;;12.00;100.00
17505;BME280;8870;50.950;11.762;2023-03-23T00:20:48;97461.03;;;11.97;100.00
17505;BME280;8870;50.950;11.762;2023-03-23T00:26:06;97459.56;;;11.95;100.00
17505;BME280;8870;50.950;11.762;2023-03-23T00:31:40;97458.53;;;11.96;100.00
17505;BME280;8870;50.950;11.762;2023-03-23T00:37:12;97457.91;;;11.94;100.00
17505;BME280;8870;50.950;11.762;2023-03-23T00:42:43;97453.81;;;11.98;100.00
17505;BME280;8870;50.950;11.762;2023-03-23T00:48:04;97459.38;;;11.96;100.00
17505;BME280;8870;50.950;11.762;2023-03-23T00:53:36;97468.78;;;12.00;100.00
17505;BME280;8870;50.950;11.762;2023-03-23T00:58:56;97457.41;;;12.05;100.00
17505;BME280;8870;50.950;11.762;2023-03-23T01:04:29;97460.94;;;12.06;100.00
17505;BME280;8870;50.950;11.762;2023-03-23T01:09:51;97459.28;;;12.05;100.00
17505;BME280;8870;50.950;11.762;2023-03-23T01:15:23;97448.47;;;12.05;100.00
17505;BME280;8870;50.950;11.762;2023-03-23T01:20:44;97447.63;;;12.04;100.00
17505;BME280;8870;50.950;11.762;2023-03-23T01:26:18;97427.28;;;12.01;100.00
17505;BME280;8870;50.950;11.762;2023-03-23T01:31:37;97426.25;;;12.02;100.00
17505;BME280;8870;50.950;11.762;2023-03-23T01:37:10;97415.16;;;11.97;100.00
17505;BME280;8870;50.950;11.762;2023-03-23T01:42:48;97410.13;;;11.94;100.00
17505;BME280;8870;50.950;11.762;2023-03-23T01:48:12;97397.88;;;11.92;100.00
17505;BME280;8870;50.950;11.762;2023-03-23T01:53:51;97392.47;;;11.92;100.00
17505;BME280;8870;50.950;11.762;2023-03-23T01:59:11;97379.78;;;11.85;100.00
17505;BME280;8870;50.950;11.762;2023-03-23T02:05:00;97386.78;;;11.80;100.00
17505;BME280;8870;50.950;11.762;2023-03-23T02:10:23;97384.47;;;11.77;100.00
17505;BME280;8870;50.950;11.762;2023-03-23T02:16:03;97380.47;;;11.72;100.00
17505;BME280;8870;50.950;11.762;2023-03-23T02:21:51;97378.63;;;11.73;100.00
17505;BME280;8870;50.950;11.762;2023-03-23T02:33:35;97361.28;;;11.82;100.00
17505;BME280;8870;50.950;11.762;2023-03-23T02:39:09;97363.19;;;11.88;100.00
17505;BME280;8870;50.950;11.762;2023-03-23T02:44:32;97346.84;;;11.97;100.00
17505;BME280;8870;50.950;11.762;2023-03-23T02:50:10;97343.78;;;12.00;100.00
17505;BME280;8870;50.950;11.762;2023-03-23T02:55:29;97336.63;;;12.14;100.00
17505;BME280;8870;50.950;11.762;2023-03-23T03:07:11;97332.84;;;12.43;100.00
17505;BME280;8870;50.950;11.762;2023-03-23T03:12:55;97318.09;;;12.46;100.00
17505;BME280;8870;50.950;11.762;2023-03-23T03:18:18;97311.00;;;12.45;100.00
17505;BME280;8870;50.950;11.762;2023-03-23T03:23:56;97310.34;;;12.36;100.00
17505;BME280;8870;50.950;11.762;2023-03-23T03:29:19;97313.84;;;12.30;100.00
17505;BME280;8870;50.950;11.762;2023-03-23T03:34:51;97310.28;;;12.23;100.00
17505;BME280;8870;50.950;11.762;2023-03-23T03:40:15;97295.13;;;12.22;100.00
17505;BME280;8870;50.950;11.762;2023-03-23T03:45:48;97289.72;;;12.22;100.00
17505;BME280;8870;50.950;11.762;2023-03-23T03:51:06;97296.00;;;12.36;100.00
17505;BME280;8870;50.950;11.762;2023-03-23T03:56:41;97308.69;;;12.42;100.00
17505;BME280;8870;50.950;11.762;2023-03-23T04:02:10;97304.97;;;12.43;100.00
17505;BME280;8870;50.950;11.762;2023-03-23T04:07:42;97312.84;;;12.38;100.00
17505;BME280;8870;50.950;11.762;2023-03-23T04:13:20;97318.91;;;12.40;100.00
17505;BME280;8870;50.950;11.762;2023-03-23T04:19:01;97314.72;;;12.37;100.00
17505;BME280;8870;50.950;11.762;2023-03-23T04:24:20;97320.97;;;12.38;100.00
17505;BME280;8870;50.950;11.762;2023-03-23T04:30:14;97314.53;;;12.39;100.00
17505;BME280;8870;50.950;11.762;2023-03-23T04:35:47;97333.25;;;12.47;100.00
17505;BME280;8870;50.950;11.762;2023-03-23T04:41:20;97347.78;;;12.46;100.00
17505;BME280;8870;50.950;11.762;2023-03-23T04:46:53;97351.56;;;12.52;100.00
17505;BME280;8870;50.950;11.762;2023-03-23T04:52:30;97343.66;;;12.50;100.00
17505;BME280;8870;50.950;11.762;2023-03-23T04:58:03;97339.69;;;12.46;100.00
17505;BME280;8870;50.950;11.762;2023-03-23T05:03:47;97329.81;;;12.67;100.00
17505;BME280;8870;50.950;11.762;2023-03-23T05:09:18;97341.03;;;12.63;100.00
17505;BME280;8870;50.950;11.762;2023-03-23T05:14:40;97330.03;;;12.65;100.00
17505;BME280;8870;50.950;11.762;2023-03-23T05:20:16;97331.72;;;12.73;100.00
17505;BME280;8870;50.950;11.762;2023-03-23T05:25:40;97333.19;;;12.82;100.00
17505;BME280;8870;50.950;11.762;2023-03-23T05:31:11;97343.34;;;12.73;100.00
17505;BME280;8870;50.950;11.762;2023-03-23T05:36:34;97337.50;;;12.70;100.00
17505;BME280;8870;50.950;11.762;2023-03-23T05:42:08;97352.06;;;12.69;100.00
17505;BME280;8870;50.950;11.762;2023-03-23T05:47:49;97372.84;;;12.68;100.00
17505;BME280;8870;50.950;11.762;2023-03-23T05:53:24;97375.09;;;12.64;100.00
17505;BME280;8870;50.950;11.762;2023-03-23T05:58:44;97372.81;;;12.61;100.00
17505;BME280;8870;50.950;11.762;2023-03-23T06:04:16;97375.38;;;12.76;100.00
17505;BME280;8870;50.950;11.762;2023-03-23T06:09:52;97366.41;;;12.76;100.00
17505;BME280;8870;50.950;11.762;2023-03-23T06:15:26;97388.03;;;12.69;100.00
17505;BME280;8870;50.950;11.762;2023-03-23T06:20:46;97377.41;;;12.68;100.00
17505;BME280;8870;50.950;11.762;2023-03-23T06:26:46;97394.44;;;12.61;100.00
17505;BME280;8870;50.950;11.762;2023-03-23T06:32:05;97406.50;;;12.66;100.00
17505;BME280;8870;50.950;11.762;2023-03-23T06:37:38;97418.34;;;12.64;100.00
17505;BME280;8870;50.950;11.762;2023-03-23T06:43:07;97415.66;;;12.71;100.00
17505;BME280;8870;50.950;11.762;2023-03-23T06:48:48;97420.59;;;12.61;100.00
17505;BME280;8870;50.950;11.762;2023-03-23T06:54:29;97432.94;;;12.42;100.00
17505;BME280;8870;50.950;11.762;2023-03-23T06:59:51;97437.88;;;12.31;100.00
17505;BME280;8870;50.950;11.762;2023-03-23T07:05:25;97445.00;;;12.11;100.00
17505;BME280;8870;50.950;11.762;2023-03-23T07:10:45;97450.81;;;11.93;100.00
17505;BME280;8870;50.950;11.762;2023-03-23T07:16:20;97438.81;;;11.95;100.00
17505;BME280;8870;50.950;11.762;2023-03-23T07:21:38;97444.19;;;11.95;100.00
17505;BME280;8870;50.950;11.762;2023-03-23T07:27:11;97440.47;;;11.96;100.00
17505;BME280;8870;50.950;11.762;2023-03-23T07:32:36;97427.66;;;11.98;100.00
17505;BME280;8870;50.950;11.762;2023-03-23T07:38:07;97426.47;;;12.08;100.00
17505;BME280;8870;50.950;11.762;2023-03-23T07:43:26;97443.97;;;12.12;100.00
17505;BME280;8870;50.950;11.762;2023-03-23T07:49:06;97435.28;;;12.16;100.00
17505;BME280;8870;50.950;11.762;2023-03-23T07:54:35;97442.13;;;12.19;100.00
17505;BME280;8870;50.950;11.762;2023-03-23T08:00:38;97427.03;;;12.25;100.00
17505;BME280;8870;50.950;11.762;2023-03-23T08:06:00;97438.28;;;12.28;100.00
17505;BME280;8870;50.950;11.762;2023-03-23T08:11:51;97437.50;;;12.35;100.00
17505;BME280;8870;50.950;11.762;2023-03-23T08:17:12;97445.59;;;12.35;100.00
17505;BME280;8870;50.950;11.762;2023-03-23T08:23:05;97439.81;;;12.38;100.00
17505;BME280;8870;50.950;11.762;2023-03-23T08:28:53;97453.41;;;12.51;100.00
17505;BME280;8870;50.950;11.762;2023-03-23T08:34:40;97432.72;;;12.72;100.00
17505;BME280;8870;50.950;11.762;2023-03-23T08:40:37;97436.16;;;12.87;100.00
17505;BME280;8870;50.950;11.762;2023-03-23T08:46:27;97446.97;;;12.94;100.00
17505;BME280;8870;50.950;11.762;2023-03-23T08:52:09;97429.75;;;13.02;100.00
17505;BME280;8870;50.950;11.762;2023-03-23T08:58:03;97433.34;;;13.09;100.00
17505;BME280;8870;50.950;11.762;2023-03-23T09:03:34;97430.88;;;13.21;100.00
17505;BME280;8870;50.950;11.762;2023-03-23T09:09:23;97439.44;;;13.38;100.00
17505;BME280;8870;50.950;11.762;2023-03-23T09:14:44;97431.00;;;13.54;100.00
17505;BME280;8870;50.950;11.762;2023-03-23T09:20:17;97433.72;;;13.61;100.00
17505;BME280;8870;50.950;11.762;2023-03-23T09:25:35;97428.94;;;13.77;100.00
17505;BME280;8870;50.950;11.762;2023-03-23T09:31:11;97448.53;;;13.92;100.00
17505;BME280;8870;50.950;11.762;2023-03-23T09:36:29;97456.25;;;14.02;100.00
17505;BME280;8870;50.950;11.762;2023-03-23T09:42:18;97445.22;;;14.10;100.00
17505;BME280;8870;50.950;11.762;2023-03-23T09:47:49;97441.69;;;14.03;100.00
17505;BME280;8870;50.950;11.762;2023-03-23T09:53:29;97442.31;;;14.05;100.00
17505;BME280;8870;50.950;11.762;2023-03-23T09:58:53;97433.56;;;14.03;100.00
17505;BME280;8870;50.950;11.762;2023-03-23T10:04:34;97440.19;;;14.00;100.00
17505;BME280;8870;50.950;11.762;2023-03-23T10:09:56;97442.31;;;14.05;100.00
17505;BME280;8870;50.950;11.762;2023-03-23T10:15:31;97439.78;;;14.03;100.00
17505;BME280;8870;50.950;11.762;2023-03-23T10:20:55;97448.97;;;14.02;100.00
17505;BME280;8870;50.950;11.762;2023-03-23T10:26:42;97461.06;;;14.00;100.00
17505;BME280;8870;50.950;11.762;2023-03-23T10:32:11;97463.53;;;13.95;100.00
17505;BME280;8870;50.950;11.762;2023-03-23T10:37:49;97468.13;;;14.01;100.00
17505;BME280;8870;50.950;11.762;2023-03-23T10:43:09;97480.63;;;13.89;100.00
17505;BME280;8870;50.950;11.762;2023-03-23T10:48:40;97485.41;;;13.93;100.00
17505;BME280;8870;50.950;11.762;2023-03-23T10:54:02;97483.97;;;13.91;100.00
17505;BME280;8870;50.950;11.762;2023-03-23T10:59:34;97475.84;;;13.97;100.00
17505;BME280;8870;50.950;11.762;2023-03-23T11:04:59;97472.09;;;13.98;100.00
17505;BME280;8870;50.950;11.762;2023-03-23T11:10:39;97476.69;;;14.18;100.00
17505;BME280;8870;50.950;11.762;2023-03-23T11:15:58;97490.22;;;14.18;100.00
17505;BME280;8870;50.950;11.762;2023-03-23T11:21:31;97472.72;;;14.27;100.00
17505;BME280;8870;50.950;11.762;2023-03-23T11:26:53;97473.34;;;14.29;100.00
17505;BME280;8870;50.950;11.762;2023-03-23T11:32:29;97484.19;;;14.36;100.00
17505;BME280;8870;50.950;11.762;2023-03-23T11:37:49;97458.13;;;14.42;100.00
17505;BME280;8870;50.950;11.762;2023-03-23T11:43:26;97477.28;;;14.54;100.00
17505;BME280;8870;50.950;11.762;2023-03-23T11:48:57;97480.22;;;14.59;100.00
17505;BME280;8870;50.950;11.762;2023-03-23T11:54:43;97472.28;;;14.64;100.00
17505;BME280;8870;50.950;11.762;2023-03-23T12:00:15;97472.28;;;14.77;100.00
17505;BME280;8870;50.950;11.762;2023-03-23T12:05:50;97489.97;;;14.93;100.00
17505;BME280;8870;50.950;11.762;2023-03-23T12:11:17;97499.75;;;15.01;100.00
17505;BME280;8870;50.950;11.762;2023-03-23T12:17:00;97468.22;;;15.07;100.00
17505;BME280;8870;50.950;11.762;2023-03-23T12:22:34;97445.50;;;15.08;100.00
17505;BME280;8870;50.950;11.762;2023-03-23T12:28:16;97457.16;;;15.15;100.00
17505;BME280;8870;50.950;11.762;2023-03-23T12:33:48;97465.84;;;15.31;100.00
17505;BME280;8870;50.950;11.762;2023-03-23T12:39:48;97466.28;;;15.34;100.00
17505;BME280;8870;50.950;11.762;2023-03-23T12:45:19;97484.94;;;15.10;100.00
17505;BME280;8870;50.950;11.762;2023-03-23T12:51:09;97488.53;;;14.91;100.00
17505;BME280;8870;50.950;11.762;2023-03-23T12:56:34;97479.94;;;15.07;100.00
17505;BME280;8870;50.950;11.762;2023-03-23T13:02:15;97463.44;;;15.02;100.00
17505;BME280;8870;50.950;11.762;2023-03-23T13:07:42;97454.22;;;15.17;100.00
17505;BME280;8870;50.950;11.762;2023-03-23T13:13:18;97459.69;;;15.03;100.00
17505;BME280;8870;50.950;11.762;2023-03-23T13:18:44;97457.03;;;14.90;100.00
17505;BME280;8870;50.950;11.762;2023-03-23T13:24:24;97470.16;;;14.93;100.00
17505;BME280;8870;50.950;11.762;2023-03-23T13:29:44;97460.56;;;14.97;100.00
17505;BME280;8870;50.950;11.762;2023-03-23T13:35:17;97446.38;;;15.02;100.00
17505;BME280;8870;50.950;11.762;2023-03-23T13:40:42;97457.28;;;14.68;100.00
17505;BME280;8870;50.950;11.762;2023-03-23T13:46:27;97449.78;;;14.57;100.00
17505;BME280;8870;50.950;11.762;2023-03-23T13:51:56;97445.16;;;14.84;100.00
17505;BME280;8870;50.950;11.762;2023-03-23T13:57:38;97450.13;;;15.01;100.00
17505;BME280;8870;50.950;11.762;2023-03-23T14:03:13;97436.19;;;14.84;100.00
17505;BME280;8870;50.950;11.762;2023-03-23T14:08:49;97444.50;;;14.95;100.00
17505;BME280;8870;50.950;11.762;2023-03-23T14:14:20;97464.16;;;14.77;100.00
17505;BME280;8870;50.950;11.762;2023-03-23T14:19:54;97457.09;;;14.70;100.00
17505;BME280;8870;50.950;11.762;2023-03-23T14:25:17;97462.09;;;14.39;100.00
17505;BME280;8870;50.950;11.762;2023-03-23T14:30:52;97462.50;;;14.23;100.00
17505;BME280;8870;50.950;11.762;2023-03-23T14:36:12;97465.63;;;14.06;100.00
17505;BME280;8870;50.950;11.762;2023-03-23T14:41:43;97472.69;;;13.94;100.00
17505;BME280;8870;50.950;11.762;2023-03-23T14:47:09;97479.78;;;13.81;100.00
17505;BME280;8870;50.950;11.762;2023-03-23T14:52:41;97481.22;;;13.77;100.00
17505;BME280;8870;50.950;11.762;2023-03-23T14:58:06;97491.81;;;13.72;100.00
17505;BME280;8870;50.950;11.762;2023-03-23T15:03:43;97483.09;;;13.70;100.00
17505;BME280;8870;50.950;11.762;2023-03-23T15:09:04;97495.56;;;13.71;100.00
17505;BME280;8870;50.950;11.762;2023-03-23T15:14:44;97506.84;;;13.75;100.00
17505;BME280;8870;50.950;11.762;2023-03-23T15:20:19;97499.53;;;13.75;100.00
17505;BME280;8870;50.950;11.762;2023-03-23T15:25:52;97495.56;;;13.78;100.00
17505;BME280;8870;50.950;11.762;2023-03-23T15:31:11;97481.41;;;13.82;100.00
17505;BME280;8870;50.950;11.762;2023-03-23T15:36:45;97478.75;;;13.96;100.00
17505;BME280;8870;50.950;11.762;2023-03-23T15:42:04;97470.63;;;13.96;100.00
17505;BME280;8870;50.950;11.762;2023-03-23T15:47:37;97474.81;;;14.18;100.00
17505;BME280;8870;50.950;11.762;2023-03-23T15:53:19;97483.78;;;14.12;100.00
17505;BME280;8870;50.950;11.762;2023-03-23T15:58:53;97491.06;;;14.05;100.00
17505;BME280;8870;50.950;11.762;2023-03-23T16:04:16;97504.38;;;14.00;100.00
17505;BME280;8870;50.950;11.762;2023-03-23T16:09:52;97501.47;;;14.15;100.00
17505;BME280;8870;50.950;11.762;2023-03-23T16:15:11;97502.50;;;14.07;100.00
17505;BME280;8870;50.950;11.762;2023-03-23T16:20:42;97496.66;;;13.97;100.00
17505;BME280;8870;50.950;11.762;2023-03-23T16:26:03;97498.72;;;13.88;100.00
17505;BME280;8870;50.950;11.762;2023-03-23T16:31:35;97516.19;;;13.79;100.00
17505;BME280;8870;50.950;11.762;2023-03-23T16:36:53;97517.22;;;13.71;100.00
17505;BME280;8870;50.950;11.762;2023-03-23T16:42:28;97506.81;;;13.68;100.00
17505;BME280;8870;50.950;11.762;2023-03-23T16:47:46;97518.25;;;13.63;100.00
17505;BME280;8870;50.950;11.762;2023-03-23T16:53:22;97517.19;;;13.58;100.00
17505;BME280;8870;50.950;11.762;2023-03-23T16:58:44;97522.97;;;13.48;100.00
17505;BME280;8870;50.950;11.762;2023-03-23T17:04:15;97520.56;;;13.31;100.00
17505;BME280;8870;50.950;11.762;2023-03-23T17:09:46;97504.09;;;13.19;100.00
17505;BME280;8870;50.950;11.762;2023-03-23T17:15:08;97512.19;;;13.13;100.00
17505;BME280;8870;50.950;11.762;2023-03-23T17:20:41;97499.66;;;13.05;100.00
17505;BME280;8870;50.950;11.762;2023-03-23T17:25:59;97498.94;;;12.89;100.00
17505;BME280;8870;50.950;11.762;2023-03-23T17:31:27;97495.03;;;12.92;100.00
17505;BME280;8870;50.950;11.762;2023-03-23T17:36:58;97497.31;;;12.95;100.00
17505;BME280;8870;50.950;11.762;2023-03-23T17:42:18;97496.22;;;12.89;100.00
17505;BME280;8870;50.950;11.762;2023-03-23T17:47:51;97503.91;;;12.86;100.00
17505;BME280;8870;50.950;11.762;2023-03-23T17:53:24;97515.97;;;12.83;100.00
17505;BME280;8870;50.950;11.762;2023-03-23T17:58:43;97519.25;;;12.78;100.00
17505;BME280;8870;50.950;11.762;2023-03-23T18:04:17;97515.28;;;12.74;100.00
17505;BME280;8870;50.950;11.762;2023-03-23T18:09:37;97521.72;;;12.73;100.00
17505;BME280;8870;50.950;11.762;2023-03-23T18:15:09;97524.56;;;12.65;100.00
17505;BME280;8870;50.950;11.762;2023-03-23T18:20:31;97519.94;;;12.59;100.00
17505;BME280;8870;50.950;11.762;2023-03-23T18:26:04;97523.69;;;12.58;100.00
17505;BME280;8870;50.950;11.762;2023-03-23T18:31:23;97522.72;;;12.44;100.00
17505;BME280;8870;50.950;11.762;2023-03-23T18:37:03;97511.63;;;12.32;100.00
17505;BME280;8870;50.950;11.762;2023-03-23T18:42:22;97516.13;;;12.25;100.00
17505;BME280;8870;50.950;11.762;2023-03-23T18:47:52;97529.06;;;12.08;100.00
17505;BME280;8870;50.950;11.762;2023-03-23T18:53:14;97524.47;;;11.86;100.00
17505;BME280;8870;50.950;11.762;2023-03-23T18:58:46;97519.59;;;11.75;100.00
17505;BME280;8870;50.950;11.762;2023-03-23T19:04:05;97519.03;;;11.65;100.00
17505;BME280;8870;50.950;11.762;2023-03-23T19:09:39;97522.84;;;11.70;100.00
17505;BME280;8870;50.950;11.762;2023-03-23T19:14:59;97517.91;;;11.74;100.00
17505;BME280;8870;50.950;11.762;2023-03-23T19:20:29;97532.22;;;11.75;100.00
17505;BME280;8870;50.950;11.762;2023-03-23T19:26:18;97531.97;;;11.69;100.00
17505;BME280;8870;50.950;11.762;2023-03-23T19:31:52;97531.84;;;11.78;100.00
17505;BME280;8870;50.950;11.762;2023-03-23T19:37:11;97532.50;;;11.80;100.00
17505;BME280;8870;50.950;11.762;2023-03-23T19:42:45;97538.16;;;11.85;100.00
17505;BME280;8870;50.950;11.762;2023-03-23T19:48:05;97538.94;;;11.79;100.00
17505;BME280;8870;50.950;11.762;2023-03-23T19:53:37;97545.34;;;11.78;100.00
17505;BME280;8870;50.950;11.762;2023-03-23T19:58:57;97553.16;;;11.72;100.00
17505;BME280;8870;50.950;11.762;2023-03-23T20:04:32;97553.09;;;11.66;100.00
17505;BME280;8870;50.950;11.762;2023-03-23T20:09:53;97544.63;;;11.69;100.00
17505;BME280;8870;50.950;11.762;2023-03-23T20:15:28;97538.56;;;11.67;100.00
17505;BME280;8870;50.950;11.762;2023-03-23T20:20:47;97540.81;;;11.63;100.00
17505;BME280;8870;50.950;11.762;2023-03-23T20:26:20;97539.53;;;11.59;100.00
17505;BME280;8870;50.950;11.762;2023-03-23T20:31:41;97530.41;;;11.60;100.00
17505;BME280;8870;50.950;11.762;2023-03-23T20:37:15;97540.75;;;11.56;100.00
17505;BME280;8870;50.950;11.762;2023-03-23T20:42:36;97538.91;;;11.57;100.00
17505;BME280;8870;50.950;11.762;2023-03-23T20:48:11;97530.16;;;11.55;100.00
17505;BME280;8870;50.950;11.762;2023-03-23T20:53:43;97523.72;;;11.56;100.00
17505;BME280;8870;50.950;11.762;2023-03-23T20:59:03;97518.91;;;11.51;100.00
17505;BME280;8870;50.950;11.762;2023-03-23T21:04:36;97531.28;;;11.46;100.00
17505;BME280;8870;50.950;11.762;2023-03-23T21:09:56;97532.31;;;11.45;100.00
17505;BME280;8870;50.950;11.762;2023-03-23T21:15:28;97521.69;;;11.43;100.00
17505;BME280;8870;50.950;11.762;2023-03-23T21:20:48;97523.13;;;11.39;100.00
17505;BME280;8870;50.950;11.762;2023-03-23T21:26:26;97516.63;;;11.33;100.00
17505;BME280;8870;50.950;11.762;2023-03-23T21:31:45;97514.66;;;11.27;100.00
17505;BME280;8870;50.950;11.762;2023-03-23T21:37:25;97508.16;;;11.21;100.00
17505;BME280;8870;50.950;11.762;2023-03-23T21:42:44;97499.41;;;11.19;100.00
17505;BME280;8870;50.950;11.762;2023-03-23T21:48:15;97493.94;;;11.13;100.00
17505;BME280;8870;50.950;11.762;2023-03-23T21:53:38;97485.22;;;11.10;100.00
17505;BME280;8870;50.950;11.762;2023-03-23T21:59:11;97484.94;;;11.05;100.00
17505;BME280;8870;50.950;11.762;2023-03-23T22:04:29;97471.66;;;11.04;100.00
17505;BME280;8870;50.950;11.762;2023-03-23T22:10:07;97469.72;;;10.98;100.00
17505;BME280;8870;50.950;11.762;2023-03-23T22:15:26;97470.47;;;10.91;100.00
17505;BME280;8870;50.950;11.762;2023-03-23T22:20:58;97459.22;;;10.88;100.00
17505;BME280;8870;50.950;11.762;2023-03-23T22:26:19;97457.56;;;10.87;100.00
17505;BME280;8870;50.950;11.762;2023-03-23T22:31:52;97447.53;;;10.81;100.00
17505;BME280;8870;50.950;11.762;2023-03-23T22:37:11;97437.09;;;10.77;100.00
17505;BME280;8870;50.950;11.762;2023-03-23T22:42:45;97428.75;;;10.87;100.00
17505;BME280;8870;50.950;11.762;2023-03-23T22:48:04;97421.19;;;10.98;100.00
17505;BME280;8870;50.950;11.762;2023-03-23T22:53:35;97408.19;;;11.01;100.00
17505;BME280;8870;50.950;11.762;2023-03-23T22:58:56;97411.34;;;11.05;100.00
17505;BME280;8870;50.950;11.762;2023-03-23T23:04:28;97390.25;;;11.08;100.00
17505;BME280;8870;50.950;11.762;2023-03-23T23:09:47;97392.25;;;11.21;100.00
17505;BME280;8870;50.950;11.762;2023-03-23T23:15:10;97389.16;;;11.24;100.00
17505;BME280;8870;50.950;11.762;2023-03-23T23:20:43;97378.63;;;11.30;100.00
17505;BME280;8870;50.950;11.762;2023-03-23T23:26:08;97379.34;;;11.38;100.00
17505;BME280;8870;50.950;11.762;2023-03-23T23:31:41;97365.16;;;11.51;100.00
17505;BME280;8870;50.950;11.762;2023-03-23T23:37:00;97381.97;;;11.53;100.00
17505;BME280;8870;50.950;11.762;2023-03-23T23:42:33;97367.28;;;11.56;100.00
17505;BME280;8870;50.950;11.762;2023-03-23T23:47:55;97365.63;;;11.55;100.00
17505;BME280;8870;50.950;11.762;2023-03-23T23:53:27;97354.81;;;11.55;100.00
17505;BME280;8870;50.950;11.762;2023-03-23T23:58:46;97347.16;;;11.59;100.00
